Time;durP1;ratioP1;P1;durP2;ratioP2;P2;SDS_P1;SDS_P2;PMS_P1;PMS_P2;Temp;Humidity;BMP_temperature;BMP_pressure;BME280_temperature;BME280_humidity;BME280_pressure;Samples;Min_cycle;Max_cycle;Signal;HPM_P1;HPM_P2
2021/01/08 00:03:52;;;;;;;23.08;10.85;;;;;;;0.40;100.00;100189.69;18511841;28;20055;-71
2021/01/08 00:12:53;;;;;;;23.98;10.50;;;;;;;0.27;100.00;100181.28;18529834;28;20455;-71
2021/01/08 00:21:55;;;;;;;26.05;10.68;;;;;;;0.28;100.00;100185.56;18527631;28;20047;-71
2021/01/08 00:30:56;;;;;;;25.45;9.85;;;;;;;0.29;100.00;100182.13;18528051;28;20396;-72
2021/01/08 00:39:57;;;;;;;22.67;10.05;;;;;;;0.43;100.00;100189.63;18527502;28;20066;-72
2021/01/08 00:48:58;;;;;;;23.10;10.05;;;;;;;0.41;100.00;100178.50;18526709;28;20047;-72
2021/01/08 00:57:59;;;;;;;22.25;9.27;;;;;;;0.46;100.00;100181.00;18526301;28;20055;-68
2021/01/08 01:06:59;;;;;;;20.58;9.65;;;;;;;0.46;100.00;100186.97;18527062;28;20430;-69
2021/01/08 01:16:00;;;;;;;22.15;9.50;;;;;;;0.53;100.00;100183.44;18526546;28;20450;-69
2021/01/08 01:25:01;;;;;;;20.73;9.57;;;;;;;0.56;100.00;100180.81;18526287;28;20055;-70
2021/01/08 01:34:02;;;;;;;24.05;10.65;;;;;;;0.51;99.79;100187.75;18525642;28;20050;-70
2021/01/08 01:43:03;;;;;;;23.60;10.13;;;;;;;0.62;99.76;100192.72;18521872;28;20109;-70
2021/01/08 01:52:04;;;;;;;25.33;11.07;;;;;;;0.67;100.00;100186.63;18523092;28;20419;-71
2021/01/08 02:01:05;;;;;;;23.17;10.88;;;;;;;0.68;99.20;100179.75;18522368;28;20070;-70
2021/01/08 02:10:07;;;;;;;24.35;11.05;;;;;;;0.61;100.00;100180.75;18500512;28;20047;-70
2021/01/08 02:19:16;;;;;;;25.42;11.65;;;;;;;0.58;100.00;100191.09;18521183;28;20047;-70
2021/01/08 02:28:20;;;;;;;27.10;11.80;;;;;;;0.53;100.00;100173.16;18521756;28;20082;-70
2021/01/08 02:37:21;;;;;;;29.35;12.90;;;;;;;0.49;100.00;100171.50;18513430;28;20051;-71
2021/01/08 02:46:22;;;;;;;29.65;12.18;;;;;;;0.48;100.00;100180.09;18527870;28;20483;-70
2021/01/08 02:55:29;;;;;;;27.80;13.02;;;;;;;0.47;100.00;100174.97;18535265;28;20043;-70
2021/01/08 03:04:30;;;;;;;33.22;14.43;;;;;;;0.47;100.00;100173.25;18536440;28;20487;-70
2021/01/08 03:13:33;;;;;;;31.92;13.65;;;;;;;0.48;100.00;100174.94;18536462;28;20054;-70
2021/01/08 03:22:34;;;;;;;33.22;14.32;;;;;;;0.53;100.00;100165.41;18519027;28;20047;-70
2021/01/08 03:31:35;;;;;;;32.35;13.85;;;;;;;0.56;100.00;100167.09;18535380;28;20488;-72
2021/01/08 03:40:40;;;;;;;31.77;14.73;;;;;;;0.64;99.86;100163.50;18531449;28;20058;-69
2021/01/08 03:49:41;;;;;;;32.08;14.27;;;;;;;0.59;100.00;100156.75;18531486;28;20051;-70
2021/01/08 03:58:42;;;;;;;31.25;14.43;;;;;;;0.52;100.00;100155.13;18531328;28;20043;-70
2021/01/08 04:07:43;;;;;;;31.02;13.48;;;;;;;0.60;100.00;100159.31;18529510;28;20062;-70
2021/01/08 04:16:44;;;;;;;28.67;13.80;;;;;;;0.61;100.00;100155.00;18530185;28;20053;-70
2021/01/08 04:25:47;;;;;;;26.63;12.70;;;;;;;0.64;100.00;100148.06;18529267;28;20133;-69
2021/01/08 04:34:48;;;;;;;32.25;13.38;;;;;;;0.66;100.00;100151.44;18528421;28;20411;-70
2021/01/08 04:43:49;;;;;;;32.00;13.88;;;;;;;0.70;99.85;100140.22;18529344;28;20458;-70
2021/01/08 04:52:50;;;;;;;29.88;13.50;;;;;;;0.71;100.00;100152.19;18527562;28;20506;-70
2021/01/08 05:01:52;;;;;;;27.00;12.98;;;;;;;0.78;100.00;100164.09;18525701;28;20050;-70
2021/01/08 05:10:56;;;;;;;27.20;12.45;;;;;;;0.70;100.00;100162.56;18532215;28;20812;-70
2021/01/08 05:19:57;;;;;;;25.60;12.15;;;;;;;0.69;100.00;100163.44;18524755;28;20495;-71
2021/01/08 05:29:00;;;;;;;28.88;12.95;;;;;;;0.66;100.00;100164.31;18524693;28;20043;-71
2021/01/08 05:38:06;;;;;;;25.85;12.30;;;;;;;0.60;100.00;100151.56;18521433;28;20054;-69
2021/01/08 05:47:07;;;;;;;25.40;11.70;;;;;;;0.68;100.00;100165.16;18521400;28;20054;-69
2021/01/08 05:56:16;;;;;;;25.05;11.23;;;;;;;0.64;100.00;100165.25;18521520;28;20058;-70
2021/01/08 06:05:19;;;;;;;26.50;11.63;;;;;;;0.61;100.00;100165.31;18520118;28;20058;-70
2021/01/08 06:14:21;;;;;;;24.10;11.35;;;;;;;0.58;100.00;100168.75;18520668;28;20726;-69
2021/01/08 06:23:45;;;;;;;26.58;11.02;;;;;;;0.51;100.00;100177.47;18519173;28;20053;-70
2021/01/08 06:32:47;;;;;;;25.27;12.05;;;;;;;0.60;100.00;100192.78;18518893;28;20050;-69
2021/01/08 06:41:55;;;;;;;23.45;10.70;;;;;;;0.57;100.00;100187.66;18520763;28;20551;-69
2021/01/08 06:51:06;;;;;;;23.63;12.00;;;;;;;0.62;100.00;100193.56;18520729;28;20506;-69
2021/01/08 07:00:07;;;;;;;27.45;11.93;;;;;;;0.56;100.00;100198.00;18519135;28;20089;-70
2021/01/08 07:09:08;;;;;;;26.00;11.43;;;;;;;0.63;100.00;100205.59;18515622;28;20103;-69
2021/01/08 07:18:12;;;;;;;28.27;12.48;;;;;;;0.63;100.00;100210.75;18520095;28;20043;-70
2021/01/08 07:27:25;;;;;;;27.23;12.00;;;;;;;0.73;100.00;100214.84;18520234;28;20100;-70
2021/01/08 07:36:27;;;;;;;24.10;12.60;;;;;;;0.67;100.00;100232.97;18531531;28;20055;-70
2021/01/08 07:45:54;;;;;;;24.17;11.38;;;;;;;0.67;100.00;100237.28;18548279;28;20126;-69
2021/01/08 07:54:56;;;;;;;21.45;10.88;;;;;;;0.77;100.00;100252.56;18604654;28;20054;-70
2021/01/08 08:04:04;;;;;;;24.85;11.00;;;;;;;0.83;99.12;100267.06;18526606;28;20074;-70
2021/01/08 08:13:05;;;;;;;22.90;10.75;;;;;;;0.94;98.04;100279.75;18515712;28;20086;-70
2021/01/08 08:22:06;;;;;;;18.15;9.30;;;;;;;1.05;96.05;100281.28;18472030;28;20511;-70
2021/01/08 08:31:07;;;;;;;19.50;10.68;;;;;;;1.09;95.09;100288.09;18481138;28;20038;-69
2021/01/08 08:40:14;;;;;;;15.75;8.00;;;;;;;1.27;93.02;100289.47;18522668;28;20055;-70
2021/01/08 08:49:17;;;;;;;15.60;7.63;;;;;;;1.43;91.59;100303.78;18502271;28;20065;-70
2021/01/08 08:58:18;;;;;;;15.88;7.00;;;;;;;1.31;89.75;100303.16;18527342;28;20392;-69
2021/01/08 09:07:28;;;;;;;12.48;6.47;;;;;;;1.41;87.57;100315.00;18594482;28;20047;-69
2021/01/08 09:16:37;;;;;;;13.93;6.68;;;;;;;1.36;86.72;100319.41;18526230;28;20047;-69
2021/01/08 09:25:38;;;;;;;12.95;5.97;;;;;;;1.29;85.95;100326.38;18524869;28;20423;-69
2021/01/08 09:34:40;;;;;;;12.75;7.20;;;;;;;1.48;85.23;100338.06;18523858;28;20050;-70
2021/01/08 09:43:41;;;;;;;14.82;6.75;;;;;;;1.37;85.83;100344.31;18596429;28;20046;-69
2021/01/08 09:52:42;;;;;;;12.48;7.00;;;;;;;1.35;84.62;100352.06;18533619;28;20058;-69
2021/01/08 10:11:27;;;;;;;12.70;6.10;;;;;;;1.27;84.09;100364.22;18521912;28;20125;-69
2021/01/08 10:20:28;;;;;;;15.65;7.95;;;;;;;1.15;86.55;100362.72;18521826;28;20050;-69
2021/01/08 10:29:33;;;;;;;14.43;7.05;;;;;;;1.13;87.19;100358.47;18521549;28;20101;-69
2021/01/08 10:38:34;;;;;;;13.43;6.47;;;;;;;1.20;85.65;100353.19;18540783;28;20073;-68
2021/01/08 10:47:35;;;;;;;13.77;7.00;;;;;;;1.37;85.01;100347.75;18507212;28;20130;-69
2021/01/08 10:56:52;;;;;;;16.33;6.97;;;;;;;1.37;86.25;100347.75;18496143;28;20059;-69
2021/01/08 11:05:53;;;;;;;15.13;6.50;;;;;;;1.37;85.21;100345.16;18524709;28;20105;-69
2021/01/08 11:14:55;;;;;;;10.57;5.82;;;;;;;1.50;84.10;100331.16;18525523;28;20055;-69
2021/01/08 11:23:56;;;;;;;15.27;7.10;;;;;;;1.43;87.01;100329.56;18515089;28;20046;-69
2021/01/08 11:32:56;;;;;;;15.50;7.93;;;;;;;1.63;87.40;100322.31;18478392;28;20054;-69
2021/01/08 11:41:58;;;;;;;16.38;7.75;;;;;;;1.72;85.39;100323.88;18512577;28;20074;-69
2021/01/08 11:50:58;;;;;;;16.65;7.82;;;;;;;1.70;86.29;100318.75;18524278;28;20081;-69
2021/01/08 11:59:59;;;;;;;17.27;7.95;;;;;;;1.76;86.15;100322.06;18530466;28;20042;-69
2021/01/08 12:09:01;;;;;;;16.98;8.73;;;;;;;1.99;86.06;100312.13;18523086;28;20047;-69
2021/01/08 12:18:02;;;;;;;15.68;7.80;;;;;;;2.10;84.08;100317.91;18527958;28;20050;-69
2021/01/08 12:27:03;;;;;;;15.70;7.93;;;;;;;2.08;84.54;100324.88;18529317;28;20465;-69
2021/01/08 12:36:05;;;;;;;16.23;8.68;;;;;;;1.93;85.05;100325.19;18498605;28;20086;-68
2021/01/08 12:45:07;;;;;;;16.75;8.55;;;;;;;2.11;85.80;100324.78;18526522;28;20047;-69
2021/01/08 12:54:08;;;;;;;19.70;8.88;;;;;;;1.94;85.84;100322.56;18507358;28;20051;-69
2021/01/08 13:03:09;;;;;;;19.70;9.00;;;;;;;1.86;87.24;100324.44;18523599;28;20046;-70
2021/01/08 13:12:13;;;;;;;16.83;7.95;;;;;;;1.84;85.94;100321.03;18526904;28;20050;-70
2021/01/08 13:21:15;;;;;;;18.70;9.40;;;;;;;2.03;86.94;100317.19;18525121;28;20046;-69
2021/01/08 13:30:16;;;;;;;18.75;7.65;;;;;;;2.07;83.78;100328.31;18544355;28;20043;-68
2021/01/08 13:39:17;;;;;;;16.17;7.88;;;;;;;1.96;85.06;100338.00;18524469;28;20138;-69
2021/01/08 13:48:18;;;;;;;19.10;8.20;;;;;;;2.03;84.66;100334.44;18523678;28;20046;-69
2021/01/08 13:57:19;;;;;;;14.88;7.55;;;;;;;2.06;84.77;100336.94;18546166;28;20043;-69
2021/01/08 14:06:22;;;;;;;14.80;7.68;;;;;;;2.03;84.41;100353.31;18524407;28;20053;-70
2021/01/08 14:15:24;;;;;;;16.67;7.83;;;;;;;1.77;86.24;100367.66;18521847;28;20071;-69
2021/01/08 14:24:24;;;;;;;16.75;7.93;;;;;;;1.73;89.21;100379.72;18523402;28;20451;-69
2021/01/08 14:33:25;;;;;;;21.15;10.05;;;;;;;1.73;89.13;100382.31;18520932;28;20105;-71
2021/01/08 14:42:26;;;;;;;19.23;9.15;;;;;;;1.61;91.18;100391.16;18520157;28;20050;-69
2021/01/08 14:51:29;;;;;;;18.55;8.13;;;;;;;1.57;91.23;100396.41;18520541;28;20507;-70
2021/01/08 15:00:30;;;;;;;18.65;9.07;;;;;;;1.64;90.41;100400.53;18519998;28;20047;-69
2021/01/08 15:09:32;;;;;;;18.83;8.30;;;;;;;1.59;91.07;100412.66;18520226;28;20050;-69
2021/01/08 15:18:34;;;;;;;16.20;7.95;;;;;;;1.58;89.51;100409.25;18518874;28;20486;-69
2021/01/08 15:27:37;;;;;;;15.00;7.90;;;;;;;1.52;89.30;100426.56;18519687;28;20046;-70
2021/01/08 15:36:38;;;;;;;17.47;8.83;;;;;;;1.53;88.47;100431.69;18519532;28;20043;-70
2021/01/08 15:45:39;;;;;;;17.35;8.65;;;;;;;1.41;90.43;100434.47;18519338;28;20059;-70
2021/01/08 15:54:41;;;;;;;17.27;9.27;;;;;;;1.29;90.29;100438.09;18552790;28;21058;-70
2021/01/08 16:03:42;;;;;;;17.88;9.60;;;;;;;1.36;91.69;100448.31;18530997;28;20054;-70
2021/01/08 16:12:43;;;;;;;20.08;10.10;;;;;;;1.31;94.10;100453.56;18515383;28;20517;-70
2021/01/08 16:21:44;;;;;;;16.20;9.32;;;;;;;1.32;94.07;100465.59;18530335;28;20047;-70
2021/01/08 16:30:45;;;;;;;17.98;9.65;;;;;;;1.29;95.79;100476.78;18528928;28;20101;-70
2021/01/08 16:39:47;;;;;;;20.50;11.32;;;;;;;1.15;98.41;100488.16;18530450;28;20051;-70
2021/01/08 16:48:48;;;;;;;21.42;10.30;;;;;;;1.16;99.21;100492.47;18529251;28;20053;-70
2021/01/08 16:57:49;;;;;;;20.08;10.32;;;;;;;1.11;99.42;100497.69;18529256;28;20109;-72
2021/01/08 17:06:52;;;;;;;21.95;11.55;;;;;;;1.02;100.00;100502.94;18522926;28;20050;-71
2021/01/08 17:15:53;;;;;;;25.57;13.17;;;;;;;1.14;100.00;100512.25;18527095;28;20051;-71
2021/01/08 17:24:54;;;;;;;26.35;13.88;;;;;;;1.04;100.00;100529.56;18525800;28;20046;-71
2021/01/08 17:33:55;;;;;;;24.73;12.82;;;;;;;1.05;100.00;100533.00;18524636;28;20115;-71
2021/01/08 17:42:56;;;;;;;25.05;12.57;;;;;;;0.98;100.00;100541.66;18525205;28;20117;-71
2021/01/08 17:51:57;;;;;;;31.80;14.65;;;;;;;0.89;100.00;100534.91;18524577;28;20475;-71
2021/01/08 18:00:58;;;;;;;34.88;13.93;;;;;;;0.84;100.00;100545.28;18522459;28;20122;-71
2021/01/08 18:09:59;;;;;;;25.73;12.85;;;;;;;0.82;100.00;100551.31;18521541;28;20050;-70
2021/01/08 18:19:00;;;;;;;23.45;11.40;;;;;;;0.80;100.00;100556.50;18521985;28;20051;-71
2021/01/08 18:28:00;;;;;;;27.77;13.27;;;;;;;0.86;100.00;100558.97;18521432;28;20062;-71
2021/01/08 18:37:05;;;;;;;30.70;13.65;;;;;;;0.92;100.00;100567.50;18521192;28;20110;-71
2021/01/08 18:46:06;;;;;;;27.15;12.90;;;;;;;0.87;100.00;100570.13;18521692;28;20105;-71
2021/01/08 18:55:08;;;;;;;26.10;13.43;;;;;;;0.86;100.00;100568.47;18522177;28;20488;-71
2021/01/08 19:04:10;;;;;;;27.95;13.98;;;;;;;0.90;100.00;100577.84;18534643;28;20059;-71
2021/01/08 19:13:12;;;;;;;45.50;21.52;;;;;;;0.92;100.00;100577.81;18520519;28;20150;-70
2021/01/08 19:22:12;;;;;;;30.20;15.60;;;;;;;0.85;100.00;100588.22;18520021;28;20055;-72
2021/01/08 19:31:19;;;;;;;42.42;23.38;;;;;;;0.78;100.00;100581.41;18541870;28;20054;-70
2021/01/08 19:40:21;;;;;;;71.75;35.92;;;;;;;0.83;100.00;100589.94;18570472;28;20106;-70
2021/01/08 19:49:22;;;;;;;119.32;59.47;;;;;;;0.83;100.00;100587.38;18526980;28;20051;-71
2021/01/08 19:58:23;;;;;;;66.65;31.08;;;;;;;0.74;100.00;100597.78;18530764;28;20427;-71
2021/01/08 20:07:24;;;;;;;39.45;19.88;;;;;;;0.73;100.00;100602.94;18521626;28;20128;-71
2021/01/08 20:16:25;;;;;;;37.38;18.38;;;;;;;0.68;100.00;100608.16;18528545;28;20051;-70
2021/01/08 20:25:26;;;;;;;30.13;15.80;;;;;;;0.68;100.00;100615.88;18527552;28;20565;-71
2021/01/08 20:34:27;;;;;;;34.35;17.45;;;;;;;0.65;100.00;100620.22;18512814;28;20059;-71
2021/01/08 20:43:28;;;;;;;44.10;20.80;;;;;;;0.68;100.00;100631.31;18528093;28;20676;-70
2021/01/08 20:52:30;;;;;;;37.15;19.00;;;;;;;0.70;100.00;100632.19;18526296;28;20054;-70
2021/01/08 21:01:34;;;;;;;50.58;26.40;;;;;;;0.71;100.00;100640.75;18521877;28;20473;-70
2021/01/08 21:10:35;;;;;;;37.00;19.77;;;;;;;0.72;100.00;100647.59;18524849;28;20050;-70
2021/01/08 21:19:36;;;;;;;36.90;17.80;;;;;;;0.70;100.00;100634.75;18524463;28;20050;-70
2021/01/08 21:28:37;;;;;;;32.88;16.38;;;;;;;0.75;100.00;100643.28;18518852;28;20423;-71
2021/01/08 21:37:39;;;;;;;57.15;23.27;;;;;;;0.72;100.00;100658.75;18528862;28;20046;-71
2021/01/08 21:46:45;;;;;;;31.60;17.13;;;;;;;0.67;100.00;100663.09;18524682;28;20047;-70
2021/01/08 21:55:46;;;;;;;32.35;16.92;;;;;;;0.66;100.00;100655.41;18528727;28;20101;-71
2021/01/08 22:04:47;;;;;;;36.90;17.58;;;;;;;0.61;100.00;100655.41;18520621;28;20051;-71
2021/01/08 22:13:49;;;;;;;37.75;19.13;;;;;;;0.64;100.00;100670.88;18502922;28;20522;-71
2021/01/08 22:22:50;;;;;;;38.53;17.63;;;;;;;0.60;100.00;100665.75;18522732;28;20388;-70
2021/01/08 22:31:51;;;;;;;41.63;20.33;;;;;;;0.61;100.00;100670.88;18518636;28;20063;-70
2021/01/08 22:40:52;;;;;;;36.28;18.52;;;;;;;0.63;100.00;100669.16;18522371;28;20129;-70
2021/01/08 22:49:53;;;;;;;33.08;18.08;;;;;;;0.54;100.00;100669.25;18522354;28;20047;-71
2021/01/08 22:58:55;;;;;;;39.10;18.15;;;;;;;0.44;100.00;100672.78;18519070;28;20078;-70
2021/01/08 23:07:57;;;;;;;40.63;18.13;;;;;;;0.46;100.00;100672.75;18535790;28;20047;-74
2021/01/08 23:16:58;;;;;;;38.90;18.83;;;;;;;0.52;100.00;100686.41;18535282;28;20315;-70
2021/01/08 23:25:59;;;;;;;36.85;17.75;;;;;;;0.51;100.00;100689.84;18532269;28;20523;-69
2021/01/08 23:35:10;;;;;;;41.03;19.70;;;;;;;0.50;100.00;100688.19;18532853;28;20047;-70
2021/01/08 23:44:11;;;;;;;36.42;18.60;;;;;;;0.49;100.00;100690.75;18533590;28;20055;-70
2021/01/08 23:53:12;;;;;;;44.13;21.35;;;;;;;0.52;100.00;100695.88;18532808;28;20059;-70
